Becancour, Canada
Current Conditions -  °F | °C
As of 2:00 AM on Monday 22 Dec 2014 (Local Time) from CYRQ Reporting Station
Overcast Overcast  
Wind Chill:   Ceiling: 1200
Heat Index: 16°   Visibility: 9mi
Dew Point: 10°   Wind: 5mph
Humidity: 79%   Direction: 40°NE
Pressure: 30.43"   Gusts: NA
Location:  46.36°N, 72.44°W
Report Text: CYRQ 220700Z AUTO 04004KT 9SM OVC012 M09/M12 A3043 RMK SLP308
Loading
Personal Weather Stations






























Interactive Weather Map New forecast layout! Learn more

10-Day Weather Forecast

Advertisements
Track Severe Weather on mobile